createdAt,value
2023-04-29T00:01:05.000Z,19.33
2023-04-29T00:03:31.663Z,19.33
2023-04-29T00:05:58.256Z,19.33
2023-04-29T00:08:24.874Z,19.32
2023-04-29T00:10:51.275Z,19.32
2023-04-29T00:13:17.754Z,19.32
2023-04-29T00:15:44.164Z,19.31
2023-04-29T00:18:10.647Z,19.31
2023-04-29T00:20:37.192Z,19.30
2023-04-29T00:23:03.499Z,19.30
2023-04-29T00:25:29.854Z,19.30
2023-04-29T00:27:56.398Z,19.28
2023-04-29T00:30:22.745Z,19.29
2023-04-29T00:32:49.198Z,19.28
2023-04-29T00:35:15.515Z,19.28
2023-04-29T00:37:41.835Z,19.28
2023-04-29T00:40:08.199Z,19.26
2023-04-29T00:42:34.592Z,19.26
2023-04-29T00:45:00.985Z,19.27
2023-04-29T00:47:27.499Z,19.27
2023-04-29T00:49:53.993Z,19.25
2023-04-29T00:52:20.399Z,19.25
2023-04-29T00:54:46.732Z,19.25
2023-04-29T00:57:13.211Z,19.24
2023-04-29T00:59:39.538Z,19.24
2023-04-29T01:02:05.837Z,19.23
2023-04-29T01:04:32.232Z,19.23
2023-04-29T01:06:58.585Z,19.24
2023-04-29T01:09:24.956Z,19.23
2023-04-29T01:11:51.391Z,19.22
2023-04-29T01:14:17.816Z,19.21
2023-04-29T01:16:44.261Z,19.21
2023-04-29T01:19:10.781Z,19.20
2023-04-29T01:21:37.103Z,19.21
2023-04-29T01:24:03.441Z,19.21
2023-04-29T01:26:32.830Z,19.19
2023-04-29T01:28:59.229Z,19.19
2023-04-29T01:31:25.753Z,19.19
2023-04-29T01:33:52.471Z,19.18
2023-04-29T01:36:18.817Z,19.18
2023-04-29T01:38:45.529Z,19.18
2023-04-29T01:41:11.904Z,19.17
2023-04-29T01:43:38.512Z,19.17
2023-04-29T01:46:04.894Z,19.16
2023-04-29T01:48:31.298Z,19.16
2023-04-29T01:50:57.697Z,19.14
2023-04-29T01:53:24.161Z,19.16
2023-04-29T01:55:50.511Z,19.14
2023-04-29T01:58:16.916Z,19.14
2023-04-29T02:00:43.254Z,19.14
2023-04-29T02:03:10.245Z,19.13
2023-04-29T02:05:36.613Z,19.13
2023-04-29T02:08:03.062Z,19.12
2023-04-29T02:10:29.434Z,19.12
2023-04-29T02:12:55.751Z,19.12
2023-04-29T02:15:22.019Z,19.11
2023-04-29T02:17:48.451Z,19.11
2023-04-29T02:20:14.835Z,19.12
2023-04-29T02:22:41.165Z,19.11
2023-04-29T02:25:07.492Z,19.11
2023-04-29T02:27:33.885Z,19.11
2023-04-29T02:30:00.334Z,19.11
2023-04-29T02:32:26.874Z,19.09
2023-04-29T02:34:53.319Z,19.11
2023-04-29T02:37:19.798Z,19.10
2023-04-29T02:39:47.495Z,19.09
2023-04-29T02:42:13.799Z,19.08
2023-04-29T02:44:40.167Z,19.08
2023-04-29T02:47:06.593Z,19.08
2023-04-29T02:49:33.142Z,19.07
2023-04-29T02:51:59.445Z,19.07
2023-04-29T02:54:25.925Z,19.08
2023-04-29T02:56:52.277Z,19.07
2023-04-29T02:59:18.672Z,19.07
2023-04-29T03:01:45.265Z,19.07
2023-04-29T03:04:11.880Z,19.07
2023-04-29T03:06:38.487Z,19.07
2023-04-29T03:09:04.878Z,19.06
2023-04-29T03:11:31.193Z,19.07
2023-04-29T03:13:57.509Z,19.06
2023-04-29T03:16:24.313Z,19.06
2023-04-29T03:18:51.346Z,19.06
2023-04-29T03:21:17.843Z,19.04
2023-04-29T03:23:44.464Z,19.04
2023-04-29T03:26:10.803Z,19.04
2023-04-29T03:28:37.422Z,19.03
2023-04-29T03:31:04.155Z,19.03
2023-04-29T03:33:30.496Z,19.02
2023-04-29T03:35:57.018Z,19.02
2023-04-29T03:38:23.401Z,19.02
2023-04-29T03:40:49.983Z,19.01
2023-04-29T03:43:19.136Z,19.01
2023-04-29T03:45:47.635Z,19.01
2023-04-29T03:48:14.102Z,19.00
2023-04-29T03:50:40.382Z,19.01
2023-04-29T03:53:06.760Z,19.01
2023-04-29T03:55:33.183Z,19.02
2023-04-29T03:57:59.591Z,19.02
2023-04-29T04:00:26.054Z,19.03
2023-04-29T04:02:52.450Z,19.03
2023-04-29T04:05:18.859Z,19.04
2023-04-29T04:07:46.207Z,19.04
2023-04-29T04:10:12.546Z,19.04
2023-04-29T04:12:38.865Z,19.04
2023-04-29T04:15:05.294Z,19.05
2023-04-29T04:17:31.692Z,19.05
2023-04-29T04:19:58.111Z,19.05
2023-04-29T04:22:24.400Z,19.05
2023-04-29T04:24:50.967Z,19.05
2023-04-29T04:27:17.449Z,19.05
2023-04-29T04:29:43.984Z,19.05
2023-04-29T04:32:10.477Z,19.06
2023-04-29T04:34:36.870Z,19.06
2023-04-29T04:37:03.200Z,19.08
2023-04-29T04:39:29.512Z,19.10
2023-04-29T04:41:55.853Z,19.12
2023-04-29T04:44:22.272Z,19.14
2023-04-29T04:46:48.811Z,19.16
2023-04-29T04:49:15.653Z,19.17
2023-04-29T04:51:42.371Z,19.20
2023-04-29T04:54:09.057Z,19.22
2023-04-29T04:56:35.427Z,19.23
2023-04-29T04:59:01.820Z,19.25
2023-04-29T05:01:28.159Z,19.27
2023-04-29T05:03:57.325Z,19.30
2023-04-29T05:06:26.368Z,19.30
2023-04-29T05:08:52.833Z,19.33
2023-04-29T05:11:19.235Z,19.34
2023-04-29T05:13:45.557Z,19.37
2023-04-29T05:16:11.962Z,19.38
2023-04-29T05:18:38.310Z,19.39
2023-04-29T05:21:04.614Z,19.40
2023-04-29T05:23:30.904Z,19.42
2023-04-29T05:25:57.361Z,19.43
2023-04-29T05:28:23.760Z,19.45
2023-04-29T05:30:50.185Z,19.47
2023-04-29T05:33:16.613Z,19.49
2023-04-29T05:35:43.151Z,19.50
2023-04-29T05:38:09.508Z,19.51
2023-04-29T05:40:35.839Z,19.53
2023-04-29T05:43:02.543Z,19.54
2023-04-29T05:45:29.071Z,19.54
2023-04-29T05:47:55.431Z,19.54
2023-04-29T05:50:21.776Z,19.54
2023-04-29T05:52:48.275Z,19.54
2023-04-29T05:55:14.666Z,19.54
2023-04-29T05:57:41.299Z,19.54
2023-04-29T06:00:07.725Z,19.55
2023-04-29T06:02:37.371Z,19.53
2023-04-29T06:05:06.056Z,19.52
2023-04-29T06:07:32.977Z,19.53
2023-04-29T06:09:59.312Z,19.51
2023-04-29T06:12:25.713Z,19.51
2023-04-29T06:14:52.187Z,19.51
2023-04-29T06:17:18.573Z,19.50
2023-04-29T06:19:45.331Z,19.50
2023-04-29T06:22:11.725Z,19.51
2023-04-29T06:24:37.978Z,19.50
2023-04-29T06:27:04.469Z,19.51
2023-04-29T06:29:30.927Z,19.50
2023-04-29T06:31:57.264Z,19.53
2023-04-29T06:34:23.543Z,19.54
2023-04-29T06:36:49.906Z,19.54
2023-04-29T06:39:16.152Z,19.55
2023-04-29T06:41:42.905Z,19.55
2023-04-29T06:44:09.463Z,19.57
2023-04-29T06:46:35.784Z,19.57
2023-04-29T06:49:02.367Z,19.59
2023-04-29T06:51:29.031Z,19.58
2023-04-29T06:53:55.291Z,19.58
2023-04-29T06:56:21.597Z,19.56
2023-04-29T06:58:48.083Z,19.57
2023-04-29T07:01:14.335Z,19.57
2023-04-29T07:03:40.772Z,19.57
2023-04-29T07:06:07.107Z,19.59
2023-04-29T07:08:33.427Z,19.57
2023-04-29T07:10:59.707Z,19.60
2023-04-29T07:13:25.989Z,19.61
2023-04-29T07:15:52.244Z,19.63
2023-04-29T07:18:18.532Z,19.64
2023-04-29T07:20:44.834Z,19.64
2023-04-29T07:23:11.101Z,19.65
2023-04-29T07:25:37.397Z,19.67
2023-04-29T07:28:03.650Z,19.67
2023-04-29T07:30:29.910Z,19.69
2023-04-29T07:32:56.187Z,19.69
2023-04-29T07:35:22.506Z,19.70
2023-04-29T07:37:48.944Z,19.70
2023-04-29T07:40:15.278Z,19.70
2023-04-29T07:42:41.570Z,19.71
2023-04-29T07:45:07.855Z,19.70
2023-04-29T07:47:34.219Z,19.70
2023-04-29T07:50:00.546Z,19.69
2023-04-29T07:52:26.810Z,19.70
2023-04-29T07:54:53.330Z,19.69
2023-04-29T07:57:19.881Z,19.71
2023-04-29T07:59:46.250Z,19.72
2023-04-29T08:02:12.586Z,19.73
2023-04-29T08:04:39.105Z,19.73
2023-04-29T08:07:05.476Z,19.74
2023-04-29T08:09:31.783Z,19.74
2023-04-29T08:11:58.068Z,19.74
2023-04-29T08:14:24.310Z,19.76
2023-04-29T08:16:50.611Z,19.77
2023-04-29T08:19:16.867Z,19.78
2023-04-29T08:21:46.910Z,19.79
2023-04-29T08:24:13.286Z,19.80
2023-04-29T08:26:39.546Z,19.81
2023-04-29T08:29:06.186Z,19.81
2023-04-29T08:31:32.636Z,19.81
2023-04-29T08:33:58.911Z,19.82
2023-04-29T08:36:25.429Z,19.82
2023-04-29T08:38:51.721Z,19.83
2023-04-29T08:41:18.001Z,19.83
2023-04-29T08:43:44.295Z,19.82
2023-04-29T08:46:10.575Z,19.85
2023-04-29T08:48:36.885Z,19.89
2023-04-29T08:51:03.268Z,19.90
2023-04-29T08:53:29.639Z,19.91
2023-04-29T08:55:55.905Z,19.90
2023-04-29T08:58:25.449Z,19.92
2023-04-29T09:00:51.718Z,19.94
2023-04-29T09:03:19.641Z,19.95
2023-04-29T09:05:47.439Z,19.94
2023-04-29T09:08:13.736Z,19.94
2023-04-29T09:10:39.969Z,19.94
2023-04-29T09:13:06.226Z,19.95
2023-04-29T09:15:32.511Z,19.96
2023-04-29T09:17:58.860Z,19.98
2023-04-29T09:20:25.186Z,20.00
2023-04-29T09:22:51.511Z,20.02
2023-04-29T09:25:17.829Z,20.05
2023-04-29T09:27:44.175Z,20.07
2023-04-29T09:30:10.618Z,20.09
2023-04-29T09:32:39.070Z,20.10
2023-04-29T09:35:05.956Z,20.11
2023-04-29T09:37:32.228Z,20.11
2023-04-29T09:39:58.570Z,20.12
2023-04-29T09:42:24.881Z,20.12
2023-04-29T09:44:51.355Z,20.17
2023-04-29T09:47:17.818Z,20.20
2023-04-29T09:49:44.161Z,20.22
2023-04-29T09:52:10.604Z,20.26
2023-04-29T09:54:36.970Z,20.29
2023-04-29T09:57:03.355Z,20.33
2023-04-29T09:59:29.776Z,20.38
2023-04-29T10:01:56.545Z,20.43
2023-04-29T10:04:23.557Z,20.47
2023-04-29T10:06:50.124Z,20.48
2023-04-29T10:09:16.501Z,20.46
2023-04-29T10:11:42.829Z,20.42
2023-04-29T10:14:11.444Z,20.41
2023-04-29T10:16:40.721Z,20.44
2023-04-29T10:19:10.113Z,20.52
2023-04-29T10:21:36.667Z,20.54
2023-04-29T10:24:02.982Z,20.53
2023-04-29T10:26:29.321Z,20.53
2023-04-29T10:28:55.620Z,20.49
2023-04-29T10:31:22.043Z,20.45
2023-04-29T10:33:48.332Z,20.43
2023-04-29T10:36:14.676Z,20.42
2023-04-29T10:38:40.971Z,20.40
2023-04-29T10:41:07.374Z,20.40
2023-04-29T10:43:33.741Z,20.38
2023-04-29T10:46:00.128Z,20.37
2023-04-29T10:48:26.740Z,20.37
2023-04-29T10:50:53.035Z,20.39
2023-04-29T10:53:19.608Z,20.43
2023-04-29T10:55:46.544Z,20.48
2023-04-29T10:58:12.996Z,20.54
2023-04-29T11:00:39.459Z,20.60
2023-04-29T11:03:06.029Z,20.65
2023-04-29T11:05:32.768Z,20.68
2023-04-29T11:07:59.171Z,20.69
2023-04-29T11:10:25.504Z,20.69
2023-04-29T11:12:51.968Z,20.67
2023-04-29T11:15:18.343Z,20.62
2023-04-29T11:17:44.689Z,20.59
2023-04-29T11:20:11.197Z,20.56
2023-04-29T11:22:37.547Z,20.54
2023-04-29T11:25:03.876Z,20.54
2023-04-29T11:27:30.467Z,20.53
2023-04-29T11:29:56.743Z,20.54
2023-04-29T11:32:23.282Z,20.57
2023-04-29T11:34:49.618Z,20.61
2023-04-29T11:37:15.886Z,20.67
2023-04-29T11:39:42.228Z,20.71
2023-04-29T11:42:08.593Z,20.73
2023-04-29T11:44:34.882Z,20.72
2023-04-29T11:47:01.239Z,20.68
2023-04-29T11:49:27.753Z,20.64
2023-04-29T11:51:54.110Z,20.60
2023-04-29T11:54:21.735Z,20.58
2023-04-29T11:56:48.074Z,20.56
2023-04-29T11:59:14.427Z,20.55
2023-04-29T12:01:40.684Z,20.54
2023-04-29T12:04:07.425Z,20.52
2023-04-29T12:06:34.158Z,20.52
2023-04-29T12:09:00.450Z,20.50
2023-04-29T12:11:26.840Z,20.51
2023-04-29T12:13:53.170Z,20.51
2023-04-29T12:16:19.452Z,20.51
2023-04-29T12:18:45.718Z,20.51
2023-04-29T12:21:11.984Z,20.51
2023-04-29T12:23:38.418Z,20.51
2023-04-29T12:26:04.793Z,20.51
2023-04-29T12:28:31.277Z,20.51
2023-04-29T12:30:57.564Z,20.51
2023-04-29T12:33:23.935Z,20.50
2023-04-29T12:35:50.460Z,20.50
2023-04-29T12:38:16.788Z,20.51
2023-04-29T12:40:43.757Z,20.51
2023-04-29T12:43:10.059Z,20.51
2023-04-29T12:45:36.752Z,20.50
2023-04-29T12:48:07.228Z,20.49
2023-04-29T12:50:36.254Z,20.46
2023-04-29T12:53:02.715Z,20.44
2023-04-29T12:55:29.062Z,20.43
2023-04-29T12:57:55.433Z,20.42
2023-04-29T13:00:21.725Z,20.41
2023-04-29T13:02:48.334Z,20.41
2023-04-29T13:05:14.819Z,20.40
2023-04-29T13:07:41.250Z,20.41
2023-04-29T13:10:07.698Z,20.41
2023-04-29T13:12:34.040Z,20.42
2023-04-29T13:15:00.479Z,20.43
2023-04-29T13:17:26.863Z,20.45
2023-04-29T13:19:56.304Z,20.45
2023-04-29T13:22:22.601Z,20.49
2023-04-29T13:24:49.022Z,20.49
2023-04-29T13:27:15.267Z,20.49
2023-04-29T13:29:41.570Z,20.50
2023-04-29T13:32:08.041Z,20.50
2023-04-29T13:34:34.436Z,20.50
2023-04-29T13:37:01.045Z,20.49
2023-04-29T13:39:27.660Z,20.50
2023-04-29T13:41:58.582Z,20.50
2023-04-29T13:44:33.284Z,20.52
2023-04-29T13:47:11.851Z,20.52
2023-04-29T13:49:58.648Z,20.51
2023-04-29T13:59:52.977Z,20.52
2023-04-29T14:02:25.652Z,20.53
2023-04-29T14:04:53.273Z,20.53
2023-04-29T14:07:20.219Z,20.54
2023-04-29T14:09:46.735Z,20.54
2023-04-29T14:12:13.015Z,20.56
2023-04-29T14:14:40.563Z,20.56
2023-04-29T14:17:06.966Z,20.57
2023-04-29T14:19:33.567Z,20.58
2023-04-29T14:21:59.854Z,20.60
2023-04-29T14:24:26.212Z,20.61
2023-04-29T14:26:52.506Z,20.63
2023-04-29T14:29:18.782Z,20.62
2023-04-29T14:31:45.235Z,20.62
2023-04-29T14:34:11.550Z,20.61
2023-04-29T14:36:37.897Z,20.60
2023-04-29T14:39:04.336Z,20.59
2023-04-29T14:41:30.678Z,20.58
2023-04-29T14:43:57.240Z,20.58
2023-04-29T14:46:23.620Z,20.57
2023-04-29T14:48:49.954Z,20.55
2023-04-29T14:51:16.629Z,20.55
2023-04-29T14:53:42.939Z,20.53
2023-04-29T14:56:09.312Z,20.54
2023-04-29T14:58:35.808Z,20.54
2023-04-29T15:01:02.190Z,20.54
2023-04-29T15:03:28.693Z,20.53
2023-04-29T15:05:55.550Z,20.53
2023-04-29T15:08:22.059Z,20.53
2023-04-29T15:10:48.587Z,20.54
2023-04-29T15:13:15.266Z,20.54
2023-04-29T15:15:41.834Z,20.55
2023-04-29T15:18:08.480Z,20.58
2023-04-29T15:20:34.870Z,20.61
2023-04-29T15:23:01.177Z,20.57
2023-04-29T15:25:27.768Z,20.66
2023-04-29T15:27:54.274Z,20.69
2023-04-29T15:30:20.578Z,20.70
2023-04-29T15:32:47.455Z,20.73
2023-04-29T15:35:14.208Z,20.74
2023-04-29T15:37:40.572Z,20.78
2023-04-29T15:40:06.935Z,20.80
2023-04-29T15:42:33.407Z,20.81
2023-04-29T15:45:03.348Z,20.83
2023-04-29T15:47:30.120Z,20.84
2023-04-29T15:49:56.807Z,20.86
2023-04-29T15:52:24.613Z,20.87
2023-04-29T15:54:51.020Z,20.88
2023-04-29T15:57:17.675Z,20.89
2023-04-29T15:59:44.465Z,20.89
2023-04-29T16:02:10.799Z,20.90
2023-04-29T16:04:37.200Z,20.90
2023-04-29T16:07:03.463Z,20.90
2023-04-29T16:09:29.720Z,20.89
2023-04-29T16:11:56.018Z,20.88
2023-04-29T16:14:22.745Z,20.88
2023-04-29T16:16:49.803Z,20.87
2023-04-29T16:19:16.202Z,20.87
2023-04-29T16:21:42.863Z,20.87
2023-04-29T16:24:09.264Z,20.87
2023-04-29T16:26:35.573Z,20.86
2023-04-29T16:29:01.836Z,20.85
2023-04-29T16:31:28.150Z,20.85
2023-04-29T16:33:54.499Z,20.85
2023-04-29T16:36:20.791Z,20.84
2023-04-29T16:38:47.038Z,20.83
2023-04-29T16:41:13.269Z,20.83
2023-04-29T16:43:39.538Z,20.82
2023-04-29T16:46:05.850Z,20.80
2023-04-29T16:48:32.181Z,20.79
2023-04-29T16:50:58.482Z,20.79
2023-04-29T16:53:24.789Z,20.79
2023-04-29T16:55:51.220Z,20.78
2023-04-29T16:58:17.605Z,20.77
2023-04-29T17:00:44.273Z,20.75
2023-04-29T17:03:10.849Z,20.74
2023-04-29T17:05:37.200Z,20.73
2023-04-29T17:08:03.532Z,20.72
2023-04-29T17:10:30.005Z,20.71
2023-04-29T17:12:56.344Z,20.69
2023-04-29T17:15:22.692Z,20.69
2023-04-29T17:17:49.006Z,20.68
2023-04-29T17:20:15.336Z,20.67
2023-04-29T17:22:41.788Z,20.66
2023-04-29T17:25:08.046Z,20.65
2023-04-29T17:27:34.502Z,20.63
2023-04-29T17:30:00.857Z,20.61
2023-04-29T17:32:27.287Z,20.60
2023-04-29T17:34:53.593Z,20.60
2023-04-29T17:37:19.871Z,20.59
2023-04-29T17:39:46.308Z,20.58
2023-04-29T17:42:12.753Z,20.56
2023-04-29T17:44:39.109Z,20.57
2023-04-29T17:47:05.419Z,20.56
2023-04-29T17:49:31.953Z,20.56
2023-04-29T17:51:58.267Z,20.56
2023-04-29T17:54:24.613Z,20.56
2023-04-29T17:56:50.940Z,20.57
2023-04-29T17:59:18.021Z,20.57
2023-04-29T18:01:44.416Z,20.57
2023-04-29T18:04:10.907Z,20.58
2023-04-29T18:06:37.384Z,20.58
2023-04-29T18:09:03.981Z,20.57
2023-04-29T18:11:30.255Z,20.56
2023-04-29T18:13:56.546Z,20.55
2023-04-29T18:16:22.894Z,20.54
2023-04-29T18:18:49.487Z,20.54
2023-04-29T18:21:15.848Z,20.53
2023-04-29T18:23:42.136Z,20.53
2023-04-29T18:26:08.528Z,20.52
2023-04-29T18:28:35.994Z,20.52
2023-04-29T18:31:02.346Z,20.51
2023-04-29T18:33:28.678Z,20.49
2023-04-29T18:35:54.961Z,20.47
2023-04-29T18:38:21.247Z,20.47
2023-04-29T18:40:47.726Z,20.45
2023-04-29T18:43:14.026Z,20.44
2023-04-29T18:45:42.267Z,20.42
2023-04-29T18:48:08.646Z,20.41
2023-04-29T18:50:34.982Z,20.40
2023-04-29T18:53:01.892Z,20.38
2023-04-29T18:55:28.206Z,20.36
2023-04-29T18:57:56.834Z,20.35
2023-04-29T19:00:23.341Z,20.33
2023-04-29T19:02:49.696Z,20.32
2023-04-29T19:05:16.728Z,20.31
2023-04-29T19:07:43.104Z,20.29
2023-04-29T19:10:09.565Z,20.26
2023-04-29T19:12:36.227Z,20.26
2023-04-29T19:15:02.600Z,20.23
2023-04-29T19:17:29.122Z,20.21
2023-04-29T19:19:55.948Z,20.20
2023-04-29T19:22:22.417Z,20.18
2023-04-29T19:24:48.705Z,20.16
2023-04-29T19:27:15.293Z,20.14
2023-04-29T19:29:41.607Z,20.11
2023-04-29T19:32:07.925Z,20.11
2023-04-29T19:34:34.411Z,20.09
2023-04-29T19:37:00.935Z,20.07
2023-04-29T19:39:27.451Z,20.05
2023-04-29T19:41:53.859Z,20.02
2023-04-29T19:44:20.212Z,20.01
2023-04-29T19:46:46.729Z,20.00
2023-04-29T19:49:13.235Z,19.99
2023-04-29T19:51:39.560Z,19.98
2023-04-29T19:54:05.998Z,19.98
2023-04-29T19:56:32.324Z,19.98
2023-04-29T19:58:58.683Z,19.98
2023-04-29T20:01:25.360Z,19.99
2023-04-29T20:03:51.893Z,19.98
2023-04-29T20:06:18.306Z,19.97
2023-04-29T20:08:44.981Z,19.96
2023-04-29T20:11:11.335Z,19.96
2023-04-29T20:13:37.756Z,19.95
2023-04-29T20:16:04.233Z,19.93
2023-04-29T20:18:33.594Z,19.92
2023-04-29T20:20:59.882Z,19.91
2023-04-29T20:23:26.238Z,19.90
2023-04-29T20:25:52.639Z,19.88
2023-04-29T20:28:18.983Z,19.85
2023-04-29T20:30:45.343Z,19.84
2023-04-29T20:33:11.695Z,19.82
2023-04-29T20:35:38.136Z,19.80
2023-04-29T20:38:04.560Z,19.73
2023-04-29T20:40:30.889Z,19.77
2023-04-29T20:42:57.410Z,19.74
2023-04-29T20:45:23.956Z,19.73
2023-04-29T20:47:50.573Z,19.71
2023-04-29T20:50:16.973Z,19.70
2023-04-29T20:52:43.293Z,19.68
2023-04-29T20:55:09.589Z,19.67
2023-04-29T20:57:35.944Z,19.65
2023-04-29T21:00:02.277Z,19.63
2023-04-29T21:02:28.623Z,19.61
2023-04-29T21:04:55.152Z,19.60
2023-04-29T21:07:21.762Z,19.57
2023-04-29T21:09:48.120Z,19.55
2023-04-29T21:12:14.457Z,19.53
2023-04-29T21:14:42.163Z,19.53
2023-04-29T21:17:09.161Z,19.49
2023-04-29T21:19:35.465Z,19.48
2023-04-29T21:22:01.776Z,19.47
2023-04-29T21:24:28.078Z,19.45
2023-04-29T21:26:54.494Z,19.42
2023-04-29T21:29:20.924Z,19.40
2023-04-29T21:31:47.329Z,19.38
2023-04-29T21:34:13.648Z,19.36
2023-04-29T21:36:39.952Z,19.35
2023-04-29T21:39:06.307Z,19.33
2023-04-29T21:41:32.876Z,19.31
2023-04-29T21:43:59.212Z,19.29
2023-04-29T21:46:25.596Z,19.28
2023-04-29T21:48:51.997Z,19.27
2023-04-29T21:51:18.499Z,19.24
2023-04-29T21:53:45.111Z,19.23
2023-04-29T21:56:11.418Z,19.20
2023-04-29T21:58:37.829Z,19.18
2023-04-29T22:01:04.272Z,19.17
2023-04-29T22:03:30.710Z,19.14
2023-04-29T22:05:57.288Z,19.13
2023-04-29T22:08:23.769Z,19.11
2023-04-29T22:10:50.199Z,19.10
2023-04-29T22:13:16.510Z,19.08
2023-04-29T22:15:42.888Z,19.06
2023-04-29T22:18:09.229Z,19.04
2023-04-29T22:20:35.527Z,19.02
2023-04-29T22:23:01.913Z,19.00
2023-04-29T22:25:28.168Z,18.98
2023-04-29T22:27:54.435Z,18.97
2023-04-29T22:30:20.916Z,18.95
2023-04-29T22:32:47.310Z,18.93
2023-04-29T22:35:13.979Z,18.91
2023-04-29T22:37:40.404Z,18.91
2023-04-29T22:40:06.712Z,18.88
2023-04-29T22:42:33.085Z,18.86
2023-04-29T22:44:59.403Z,18.84
2023-04-29T22:47:25.799Z,18.83
2023-04-29T22:49:52.433Z,18.81
2023-04-29T22:52:18.940Z,18.80
2023-04-29T22:54:45.283Z,18.78
2023-04-29T22:57:11.652Z,18.77
2023-04-29T22:59:37.963Z,18.75
2023-04-29T23:02:05.003Z,18.74
2023-04-29T23:04:31.486Z,18.73
2023-04-29T23:06:58.014Z,18.72
2023-04-29T23:09:24.344Z,18.69
2023-04-29T23:11:50.699Z,18.68
2023-04-29T23:14:17.290Z,18.67
2023-04-29T23:16:43.850Z,18.66
2023-04-29T23:19:10.327Z,18.63
2023-04-29T23:21:36.650Z,18.61
2023-04-29T23:24:03.018Z,18.60
2023-04-29T23:26:29.322Z,18.58
2023-04-29T23:28:55.654Z,18.58
2023-04-29T23:31:22.020Z,18.55
2023-04-29T23:33:48.370Z,18.53
2023-04-29T23:36:14.763Z,18.53
2023-04-29T23:38:41.088Z,18.51
2023-04-29T23:41:07.421Z,18.50
2023-04-29T23:43:33.774Z,18.48
2023-04-29T23:46:01.741Z,18.47
2023-04-29T23:48:31.433Z,18.46
2023-04-29T23:50:57.731Z,18.44
2023-04-29T23:53:24.024Z,18.42
2023-04-29T23:55:50.339Z,18.41
2023-04-29T23:58:16.975Z,18.40
